sensor_id;sensor_type;location;lat;lon;timestamp;pressure;altitude;pressure_sealevel;temperature;humidity
53340;BME280;46212;50.258;19.062;2023-05-23T00:00:56;98246.28;;;12.53;74.00
53340;BME280;46212;50.258;19.062;2023-05-23T00:03:22;98244.84;;;12.58;73.86
53340;BME280;46212;50.258;19.062;2023-05-23T00:05:48;98237.69;;;12.66;73.16
53340;BME280;46212;50.258;19.062;2023-05-23T00:08:15;98241.78;;;12.70;73.20
53340;BME280;46212;50.258;19.062;2023-05-23T00:10:41;98238.19;;;12.64;73.14
53340;BME280;46212;50.258;19.062;2023-05-23T00:13:06;98245.50;;;12.53;73.17
53340;BME280;46212;50.258;19.062;2023-05-23T00:15:34;98230.81;;;12.47;73.68
53340;BME280;46212;50.258;19.062;2023-05-23T00:18:01;98238.34;;;12.46;73.89
53340;BME280;46212;50.258;19.062;2023-05-23T00:20:27;98231.00;;;12.58;73.68
53340;BME280;46212;50.258;19.062;2023-05-23T00:22:53;98231.38;;;12.51;73.38
53340;BME280;46212;50.258;19.062;2023-05-23T00:25:23;98228.34;;;12.49;73.15
53340;BME280;46212;50.258;19.062;2023-05-23T00:27:48;98219.91;;;12.43;73.23
53340;BME280;46212;50.258;19.062;2023-05-23T00:30:13;98222.59;;;12.38;72.72
53340;BME280;46212;50.258;19.062;2023-05-23T00:32:39;98224.41;;;12.26;72.71
53340;BME280;46212;50.258;19.062;2023-05-23T00:35:05;98224.00;;;12.18;73.04
53340;BME280;46212;50.258;19.062;2023-05-23T00:37:30;98220.66;;;12.00;73.14
53340;BME280;46212;50.258;19.062;2023-05-23T00:39:56;98223.03;;;11.92;73.57
53340;BME280;46212;50.258;19.062;2023-05-23T00:42:21;98232.06;;;11.93;73.91
53340;BME280;46212;50.258;19.062;2023-05-23T00:44:47;98226.06;;;11.94;73.47
53340;BME280;46212;50.258;19.062;2023-05-23T00:47:12;98223.38;;;11.85;73.41
53340;BME280;46212;50.258;19.062;2023-05-23T00:49:38;98231.56;;;11.80;73.80
53340;BME280;46212;50.258;19.062;2023-05-23T00:52:04;98228.78;;;11.80;74.34
53340;BME280;46212;50.258;19.062;2023-05-23T00:54:29;98227.38;;;11.84;74.46
53340;BME280;46212;50.258;19.062;2023-05-23T00:56:55;98223.66;;;11.87;74.05
53340;BME280;46212;50.258;19.062;2023-05-23T00:59:23;98231.97;;;11.87;74.11
53340;BME280;46212;50.258;19.062;2023-05-23T01:01:50;98225.38;;;11.85;74.18
53340;BME280;46212;50.258;19.062;2023-05-23T01:04:17;98222.81;;;11.81;74.86
53340;BME280;46212;50.258;19.062;2023-05-23T01:06:44;98229.22;;;11.87;74.21
53340;BME280;46212;50.258;19.062;2023-05-23T01:09:11;98231.63;;;11.94;73.97
53340;BME280;46212;50.258;19.062;2023-05-23T01:11:42;98226.38;;;11.96;74.19
53340;BME280;46212;50.258;19.062;2023-05-23T01:14:16;98219.69;;;11.88;74.16
53340;BME280;46212;50.258;19.062;2023-05-23T01:16:52;98227.56;;;11.81;74.71
53340;BME280;46212;50.258;19.062;2023-05-23T01:28:28;98221.88;;;11.60;76.19
53340;BME280;46212;50.258;19.062;2023-05-23T01:30:57;98213.81;;;11.71;75.35
53340;BME280;46212;50.258;19.062;2023-05-23T01:33:24;98219.34;;;11.71;74.96
53340;BME280;46212;50.258;19.062;2023-05-23T01:35:49;98223.19;;;11.65;75.56
53340;BME280;46212;50.258;19.062;2023-05-23T01:38:15;98214.31;;;11.61;75.27
53340;BME280;46212;50.258;19.062;2023-05-23T01:40:41;98223.38;;;11.61;75.61
53340;BME280;46212;50.258;19.062;2023-05-23T01:43:06;98218.34;;;11.60;75.23
53340;BME280;46212;50.258;19.062;2023-05-23T01:45:32;98222.50;;;11.55;75.65
53340;BME280;46212;50.258;19.062;2023-05-23T01:47:59;98211.44;;;11.55;75.83
53340;BME280;46212;50.258;19.062;2023-05-23T01:50:27;98213.16;;;11.53;75.89
53340;BME280;46212;50.258;19.062;2023-05-23T01:52:54;98219.63;;;11.50;76.12
53340;BME280;46212;50.258;19.062;2023-05-23T01:55:21;98212.91;;;11.42;76.38
53340;BME280;46212;50.258;19.062;2023-05-23T01:57:54;98208.63;;;11.41;76.58
53340;BME280;46212;50.258;19.062;2023-05-23T02:00:20;98217.81;;;11.47;76.41
53340;BME280;46212;50.258;19.062;2023-05-23T02:02:46;98213.97;;;11.44;76.22
53340;BME280;46212;50.258;19.062;2023-05-23T02:05:11;98213.97;;;11.44;76.26
53340;BME280;46212;50.258;19.062;2023-05-23T02:07:37;98209.75;;;11.34;76.67
53340;BME280;46212;50.258;19.062;2023-05-23T02:10:03;98208.09;;;11.28;77.36
53340;BME280;46212;50.258;19.062;2023-05-23T02:12:29;98205.66;;;11.20;77.89
53340;BME280;46212;50.258;19.062;2023-05-23T02:14:54;98209.66;;;10.96;78.68
53340;BME280;46212;50.258;19.062;2023-05-23T02:17:20;98211.06;;;10.82;79.88
53340;BME280;46212;50.258;19.062;2023-05-23T02:19:46;98199.78;;;10.71;80.72
53340;BME280;46212;50.258;19.062;2023-05-23T02:22:12;98204.69;;;10.67;81.23
53340;BME280;46212;50.258;19.062;2023-05-23T02:24:37;98200.72;;;10.68;81.12
53340;BME280;46212;50.258;19.062;2023-05-23T02:27:03;98212.97;;;10.67;81.34
53340;BME280;46212;50.258;19.062;2023-05-23T02:29:29;98212.13;;;10.52;81.53
53340;BME280;46212;50.258;19.062;2023-05-23T02:31:54;98205.66;;;10.55;81.86
53340;BME280;46212;50.258;19.062;2023-05-23T02:34:19;98210.91;;;10.86;80.99
53340;BME280;46212;50.258;19.062;2023-05-23T02:36:45;98208.41;;;10.97;80.00
53340;BME280;46212;50.258;19.062;2023-05-23T02:39:10;98211.91;;;10.97;79.64
53340;BME280;46212;50.258;19.062;2023-05-23T02:41:35;98217.16;;;10.95;79.31
53340;BME280;46212;50.258;19.062;2023-05-23T02:44:01;98209.69;;;10.87;79.52
53340;BME280;46212;50.258;19.062;2023-05-23T02:46:26;98211.38;;;10.84;79.33
53340;BME280;46212;50.258;19.062;2023-05-23T02:48:52;98199.88;;;10.86;79.09
53340;BME280;46212;50.258;19.062;2023-05-23T02:51:17;98201.28;;;10.81;78.97
53340;BME280;46212;50.258;19.062;2023-05-23T02:53:43;98205.38;;;10.86;79.37
53340;BME280;46212;50.258;19.062;2023-05-23T02:56:08;98212.19;;;10.76;79.92
53340;BME280;46212;50.258;19.062;2023-05-23T02:58:34;98200.88;;;10.64;80.68
53340;BME280;46212;50.258;19.062;2023-05-23T03:01:03;98199.16;;;10.67;80.40
53340;BME280;46212;50.258;19.062;2023-05-23T03:03:29;98201.16;;;10.66;80.18
53340;BME280;46212;50.258;19.062;2023-05-23T03:05:56;98196.91;;;10.56;80.89
53340;BME280;46212;50.258;19.062;2023-05-23T03:08:21;98198.50;;;10.39;81.62
53340;BME280;46212;50.258;19.062;2023-05-23T03:10:47;98201.72;;;10.38;82.48
53340;BME280;46212;50.258;19.062;2023-05-23T03:13:12;98193.38;;;10.56;81.59
53340;BME280;46212;50.258;19.062;2023-05-23T03:15:37;98189.88;;;10.55;82.08
53340;BME280;46212;50.258;19.062;2023-05-23T03:18:03;98190.75;;;10.61;81.71
53340;BME280;46212;50.258;19.062;2023-05-23T03:20:28;98196.13;;;10.65;81.07
53340;BME280;46212;50.258;19.062;2023-05-23T03:22:54;98188.13;;;10.67;81.16
53340;BME280;46212;50.258;19.062;2023-05-23T03:25:19;98182.31;;;10.65;81.14
53340;BME280;46212;50.258;19.062;2023-05-23T03:27:45;98184.19;;;10.59;81.96
53340;BME280;46212;50.258;19.062;2023-05-23T03:30:10;98184.00;;;10.62;81.62
53340;BME280;46212;50.258;19.062;2023-05-23T03:32:36;98181.63;;;10.46;81.84
53340;BME280;46212;50.258;19.062;2023-05-23T03:35:01;98179.94;;;10.31;82.52
53340;BME280;46212;50.258;19.062;2023-05-23T03:37:27;98178.41;;;10.39;82.98
53340;BME280;46212;50.258;19.062;2023-05-23T03:39:52;98185.72;;;10.51;82.43
53340;BME280;46212;50.258;19.062;2023-05-23T03:42:17;98182.47;;;10.61;81.70
53340;BME280;46212;50.258;19.062;2023-05-23T03:44:43;98182.78;;;10.63;81.40
53340;BME280;46212;50.258;19.062;2023-05-23T03:47:08;98182.19;;;10.50;82.23
53340;BME280;46212;50.258;19.062;2023-05-23T03:49:34;98175.00;;;10.44;83.18
53340;BME280;46212;50.258;19.062;2023-05-23T03:51:59;98178.47;;;10.62;82.78
53340;BME280;46212;50.258;19.062;2023-05-23T03:54:25;98180.66;;;10.58;82.76
53340;BME280;46212;50.258;19.062;2023-05-23T03:56:50;98182.16;;;10.69;82.70
53340;BME280;46212;50.258;19.062;2023-05-23T03:59:16;98175.16;;;10.82;82.24
53340;BME280;46212;50.258;19.062;2023-05-23T04:01:41;98176.69;;;10.83;82.64
53340;BME280;46212;50.258;19.062;2023-05-23T04:04:06;98177.75;;;10.86;82.62
53340;BME280;46212;50.258;19.062;2023-05-23T04:06:32;98176.94;;;10.94;82.53
53340;BME280;46212;50.258;19.062;2023-05-23T04:08:57;98168.03;;;10.99;82.63
53340;BME280;46212;50.258;19.062;2023-05-23T04:11:23;98172.13;;;11.04;82.72
53340;BME280;46212;50.258;19.062;2023-05-23T04:13:48;98177.44;;;11.16;82.41
53340;BME280;46212;50.258;19.062;2023-05-23T04:16:14;98173.94;;;11.16;83.09
53340;BME280;46212;50.258;19.062;2023-05-23T04:18:39;98173.44;;;11.17;83.28
53340;BME280;46212;50.258;19.062;2023-05-23T04:21:05;98176.22;;;11.17;83.53
53340;BME280;46212;50.258;19.062;2023-05-23T04:23:30;98178.63;;;11.25;83.06
53340;BME280;46212;50.258;19.062;2023-05-23T04:25:55;98171.22;;;11.31;82.75
53340;BME280;46212;50.258;19.062;2023-05-23T04:28:27;98178.56;;;11.34;82.95
53340;BME280;46212;50.258;19.062;2023-05-23T04:30:53;98182.81;;;11.44;83.45
53340;BME280;46212;50.258;19.062;2023-05-23T04:33:18;98174.16;;;11.51;82.79
53340;BME280;46212;50.258;19.062;2023-05-23T04:35:44;98170.44;;;11.54;82.88
53340;BME280;46212;50.258;19.062;2023-05-23T04:38:09;98179.97;;;11.53;83.35
53340;BME280;46212;50.258;19.062;2023-05-23T04:40:35;98171.13;;;11.63;83.02
53340;BME280;46212;50.258;19.062;2023-05-23T04:43:00;98170.59;;;11.74;82.32
53340;BME280;46212;50.258;19.062;2023-05-23T04:45:26;98169.19;;;11.79;82.06
53340;BME280;46212;50.258;19.062;2023-05-23T04:47:52;98166.13;;;11.77;81.43
53340;BME280;46212;50.258;19.062;2023-05-23T04:50:19;98167.38;;;11.76;81.17
53340;BME280;46212;50.258;19.062;2023-05-23T04:52:47;98169.28;;;11.84;80.49
53340;BME280;46212;50.258;19.062;2023-05-23T04:55:12;98157.28;;;11.87;80.45
53340;BME280;46212;50.258;19.062;2023-05-23T04:57:38;98165.28;;;12.00;80.38
53340;BME280;46212;50.258;19.062;2023-05-23T05:00:04;98154.81;;;12.04;80.01
53340;BME280;46212;50.258;19.062;2023-05-23T05:02:35;98153.28;;;12.17;79.51
53340;BME280;46212;50.258;19.062;2023-05-23T05:05:01;98152.88;;;12.24;78.99
53340;BME280;46212;50.258;19.062;2023-05-23T05:07:26;98161.66;;;12.38;78.93
53340;BME280;46212;50.258;19.062;2023-05-23T05:09:53;98152.69;;;12.57;77.73
53340;BME280;46212;50.258;19.062;2023-05-23T05:12:18;98153.53;;;12.63;77.06
53340;BME280;46212;50.258;19.062;2023-05-23T05:14:44;98152.91;;;12.89;75.99
53340;BME280;46212;50.258;19.062;2023-05-23T05:17:09;98153.53;;;12.98;76.31
53340;BME280;46212;50.258;19.062;2023-05-23T05:19:35;98148.38;;;12.91;76.48
53340;BME280;46212;50.258;19.062;2023-05-23T05:22:00;98146.06;;;13.04;75.45
53340;BME280;46212;50.258;19.062;2023-05-23T05:24:26;98148.31;;;13.20;74.89
53340;BME280;46212;50.258;19.062;2023-05-23T05:26:53;98140.63;;;13.30;74.16
53340;BME280;46212;50.258;19.062;2023-05-23T05:29:18;98148.94;;;13.30;74.27
53340;BME280;46212;50.258;19.062;2023-05-23T05:31:44;98144.03;;;13.40;74.34
53340;BME280;46212;50.258;19.062;2023-05-23T05:34:10;98150.34;;;13.60;73.90
53340;BME280;46212;50.258;19.062;2023-05-23T05:36:35;98146.00;;;13.79;72.85
53340;BME280;46212;50.258;19.062;2023-05-23T05:39:01;98148.94;;;13.96;71.90
53340;BME280;46212;50.258;19.062;2023-05-23T05:41:26;98147.06;;;14.08;71.69
53340;BME280;46212;50.258;19.062;2023-05-23T05:43:52;98147.16;;;14.19;71.28
53340;BME280;46212;50.258;19.062;2023-05-23T05:46:17;98141.16;;;14.26;70.76
53340;BME280;46212;50.258;19.062;2023-05-23T05:48:43;98135.03;;;14.42;70.19
53340;BME280;46212;50.258;19.062;2023-05-23T05:51:08;98135.03;;;14.42;70.97
53340;BME280;46212;50.258;19.062;2023-05-23T05:53:34;98136.94;;;14.62;69.06
53340;BME280;46212;50.258;19.062;2023-05-23T05:55:59;98141.03;;;14.72;69.32
53340;BME280;46212;50.258;19.062;2023-05-23T05:58:25;98136.69;;;15.02;68.60
53340;BME280;46212;50.258;19.062;2023-05-23T06:00:50;98142.59;;;15.15;68.74
53340;BME280;46212;50.258;19.062;2023-05-23T06:03:15;98138.38;;;15.36;66.85
53340;BME280;46212;50.258;19.062;2023-05-23T06:05:41;98138.16;;;15.46;67.08
53340;BME280;46212;50.258;19.062;2023-05-23T06:08:06;98137.41;;;15.45;67.61
53340;BME280;46212;50.258;19.062;2023-05-23T06:10:32;98141.28;;;15.53;66.64
53340;BME280;46212;50.258;19.062;2023-05-23T06:12:58;98136.19;;;15.57;66.38
53340;BME280;46212;50.258;19.062;2023-05-23T06:15:24;98126.84;;;15.60;66.49
53340;BME280;46212;50.258;19.062;2023-05-23T06:17:50;98130.16;;;15.59;66.58
53340;BME280;46212;50.258;19.062;2023-05-23T06:20:15;98144.59;;;15.68;66.46
53340;BME280;46212;50.258;19.062;2023-05-23T06:22:41;98124.34;;;15.68;66.34
53340;BME280;46212;50.258;19.062;2023-05-23T06:25:06;98129.44;;;15.86;66.75
53340;BME280;46212;50.258;19.062;2023-05-23T06:27:32;98131.03;;;15.98;65.50
53340;BME280;46212;50.258;19.062;2023-05-23T06:29:57;98130.78;;;16.07;65.17
53340;BME280;46212;50.258;19.062;2023-05-23T06:32:23;98121.41;;;16.16;64.76
53340;BME280;46212;50.258;19.062;2023-05-23T06:34:48;98123.22;;;16.30;64.66
53340;BME280;46212;50.258;19.062;2023-05-23T06:37:13;98120.16;;;16.39;63.41
53340;BME280;46212;50.258;19.062;2023-05-23T06:39:39;98120.66;;;16.37;64.66
53340;BME280;46212;50.258;19.062;2023-05-23T06:42:04;98120.41;;;16.41;64.11
53340;BME280;46212;50.258;19.062;2023-05-23T06:44:30;98116.09;;;16.51;63.83
53340;BME280;46212;50.258;19.062;2023-05-23T06:46:55;98121.16;;;16.53;63.75
53340;BME280;46212;50.258;19.062;2023-05-23T06:49:23;98120.44;;;16.58;64.84
53340;BME280;46212;50.258;19.062;2023-05-23T06:51:49;98114.59;;;16.72;63.97
53340;BME280;46212;50.258;19.062;2023-05-23T06:54:15;98110.50;;;16.90;62.73
53340;BME280;46212;50.258;19.062;2023-05-23T06:56:40;98110.47;;;17.01;62.02
53340;BME280;46212;50.258;19.062;2023-05-23T06:59:05;98103.84;;;17.10;62.46
53340;BME280;46212;50.258;19.062;2023-05-23T07:01:31;98106.09;;;17.22;61.68
53340;BME280;46212;50.258;19.062;2023-05-23T07:03:56;98105.03;;;17.36;62.42
53340;BME280;46212;50.258;19.062;2023-05-23T07:06:22;98099.38;;;17.47;61.82
53340;BME280;46212;50.258;19.062;2023-05-23T07:08:47;98099.34;;;17.64;61.87
53340;BME280;46212;50.258;19.062;2023-05-23T07:11:13;98104.78;;;17.86;61.22
53340;BME280;46212;50.258;19.062;2023-05-23T07:13:38;98103.22;;;17.96;62.09
53340;BME280;46212;50.258;19.062;2023-05-23T07:16:04;98104.59;;;18.20;61.01
53340;BME280;46212;50.258;19.062;2023-05-23T07:18:29;98093.56;;;18.33;59.24
53340;BME280;46212;50.258;19.062;2023-05-23T07:20:55;98092.69;;;18.43;58.83
53340;BME280;46212;50.258;19.062;2023-05-23T07:23:22;98088.38;;;18.42;59.88
53340;BME280;46212;50.258;19.062;2023-05-23T07:25:48;98090.88;;;18.46;59.08
53340;BME280;46212;50.258;19.062;2023-05-23T07:28:14;98089.84;;;18.49;59.34
53340;BME280;46212;50.258;19.062;2023-05-23T07:30:40;98082.59;;;18.65;58.18
53340;BME280;46212;50.258;19.062;2023-05-23T07:33:06;98084.78;;;18.77;57.60
53340;BME280;46212;50.258;19.062;2023-05-23T07:35:32;98082.78;;;18.96;56.82
53340;BME280;46212;50.258;19.062;2023-05-23T07:37:57;98087.22;;;19.10;55.80
53340;BME280;46212;50.258;19.062;2023-05-23T07:40:23;98081.81;;;19.18;55.53
53340;BME280;46212;50.258;19.062;2023-05-23T07:42:48;98093.53;;;19.35;55.97
53340;BME280;46212;50.258;19.062;2023-05-23T07:45:14;98083.81;;;19.42;57.18
53340;BME280;46212;50.258;19.062;2023-05-23T07:47:40;98088.91;;;19.62;55.94
53340;BME280;46212;50.258;19.062;2023-05-23T07:50:06;98087.63;;;19.82;55.17
53340;BME280;46212;50.258;19.062;2023-05-23T07:52:32;98083.69;;;19.90;54.42
53340;BME280;46212;50.258;19.062;2023-05-23T07:54:58;98082.31;;;19.97;54.79
53340;BME280;46212;50.258;19.062;2023-05-23T07:57:23;98079.31;;;20.08;53.64
53340;BME280;46212;50.258;19.062;2023-05-23T07:59:50;98074.06;;;20.17;53.74
53340;BME280;46212;50.258;19.062;2023-05-23T08:02:16;98071.56;;;20.33;54.81
53340;BME280;46212;50.258;19.062;2023-05-23T08:04:42;98078.38;;;20.37;53.63
53340;BME280;46212;50.258;19.062;2023-05-23T08:07:07;98070.66;;;20.56;54.01
53340;BME280;46212;50.258;19.062;2023-05-23T08:09:34;98074.00;;;20.68;51.60
53340;BME280;46212;50.258;19.062;2023-05-23T08:11:59;98073.72;;;20.85;52.60
53340;BME280;46212;50.258;19.062;2023-05-23T08:14:25;98074.59;;;20.93;51.62
53340;BME280;46212;50.258;19.062;2023-05-23T08:16:50;98068.56;;;21.02;52.38
53340;BME280;46212;50.258;19.062;2023-05-23T08:19:16;98065.09;;;21.09;52.41
53340;BME280;46212;50.258;19.062;2023-05-23T08:21:41;98074.56;;;21.06;52.36
53340;BME280;46212;50.258;19.062;2023-05-23T08:24:07;98068.97;;;21.06;52.03
53340;BME280;46212;50.258;19.062;2023-05-23T08:26:32;98071.13;;;21.00;51.76
53340;BME280;46212;50.258;19.062;2023-05-23T08:29:00;98060.34;;;21.04;51.43
53340;BME280;46212;50.258;19.062;2023-05-23T08:31:27;98064.78;;;21.12;51.26
53340;BME280;46212;50.258;19.062;2023-05-23T08:33:52;98063.06;;;21.09;51.11
53340;BME280;46212;50.258;19.062;2023-05-23T08:36:17;98062.22;;;21.14;51.67
53340;BME280;46212;50.258;19.062;2023-05-23T08:38:43;98060.16;;;21.15;52.03
53340;BME280;46212;50.258;19.062;2023-05-23T08:41:17;98060.47;;;21.25;52.48
53340;BME280;46212;50.258;19.062;2023-05-23T08:43:43;98058.72;;;21.35;50.18
53340;BME280;46212;50.258;19.062;2023-05-23T08:46:08;98057.53;;;21.43;49.44
53340;BME280;46212;50.258;19.062;2023-05-23T08:48:37;98053.84;;;21.48;49.92
53340;BME280;46212;50.258;19.062;2023-05-23T08:51:03;98056.53;;;21.54;49.61
53340;BME280;46212;50.258;19.062;2023-05-23T08:53:30;98053.50;;;21.52;48.49
53340;BME280;46212;50.258;19.062;2023-05-23T08:55:57;98061.38;;;21.53;50.71
53340;BME280;46212;50.258;19.062;2023-05-23T08:58:28;98054.34;;;21.60;49.62
53340;BME280;46212;50.258;19.062;2023-05-23T09:00:54;98048.06;;;21.67;50.32
53340;BME280;46212;50.258;19.062;2023-05-23T09:03:20;98051.03;;;21.82;47.80
53340;BME280;46212;50.258;19.062;2023-05-23T09:05:47;98058.94;;;21.84;46.67
53340;BME280;46212;50.258;19.062;2023-05-23T09:08:12;98051.56;;;21.94;48.45
53340;BME280;46212;50.258;19.062;2023-05-23T09:10:39;98050.34;;;22.02;48.28
53340;BME280;46212;50.258;19.062;2023-05-23T09:13:05;98052.88;;;22.13;49.64
53340;BME280;46212;50.258;19.062;2023-05-23T09:15:30;98053.56;;;22.27;46.74
53340;BME280;46212;50.258;19.062;2023-05-23T09:17:59;98053.09;;;22.36;46.92
53340;BME280;46212;50.258;19.062;2023-05-23T09:20:28;98042.59;;;22.57;48.11
53340;BME280;46212;50.258;19.062;2023-05-23T09:22:54;98049.66;;;22.71;47.86
53340;BME280;46212;50.258;19.062;2023-05-23T09:25:20;98041.81;;;22.77;44.58
53340;BME280;46212;50.258;19.062;2023-05-23T09:27:45;98041.81;;;22.77;44.30
53340;BME280;46212;50.258;19.062;2023-05-23T09:30:12;98041.53;;;22.89;45.42
53340;BME280;46212;50.258;19.062;2023-05-23T09:32:38;98047.94;;;22.97;43.34
53340;BME280;46212;50.258;19.062;2023-05-23T09:35:05;98046.31;;;23.09;43.99
53340;BME280;46212;50.258;19.062;2023-05-23T09:37:41;98037.50;;;23.12;45.06
53340;BME280;46212;50.258;19.062;2023-05-23T09:40:09;98045.25;;;23.19;43.17
53340;BME280;46212;50.258;19.062;2023-05-23T09:42:35;98040.78;;;23.24;41.23
53340;BME280;46212;50.258;19.062;2023-05-23T09:45:06;98038.34;;;23.28;41.00
53340;BME280;46212;50.258;19.062;2023-05-23T09:47:32;98038.56;;;23.30;40.96
53340;BME280;46212;50.258;19.062;2023-05-23T09:49:57;98033.38;;;23.42;40.56
53340;BME280;46212;50.258;19.062;2023-05-23T09:52:23;98033.44;;;23.57;40.02
53340;BME280;46212;50.258;19.062;2023-05-23T09:54:48;98034.59;;;23.61;41.47
53340;BME280;46212;50.258;19.062;2023-05-23T09:57:15;98029.34;;;23.65;40.46
53340;BME280;46212;50.258;19.062;2023-05-23T09:59:52;98037.03;;;23.72;40.88
53340;BME280;46212;50.258;19.062;2023-05-23T10:05:35;98035.00;;;23.80;42.17
53340;BME280;46212;50.258;19.062;2023-05-23T10:08:07;98034.44;;;23.82;42.20
53340;BME280;46212;50.258;19.062;2023-05-23T10:10:33;98029.78;;;23.92;44.01
53340;BME280;46212;50.258;19.062;2023-05-23T10:13:02;98033.97;;;24.14;43.16
53340;BME280;46212;50.258;19.062;2023-05-23T10:15:37;98027.59;;;24.21;41.81
53340;BME280;46212;50.258;19.062;2023-05-23T10:18:08;98025.53;;;24.29;42.53
53340;BME280;46212;50.258;19.062;2023-05-23T10:20:38;98028.56;;;24.39;43.85
53340;BME280;46212;50.258;19.062;2023-05-23T10:23:05;98017.06;;;24.44;43.60
53340;BME280;46212;50.258;19.062;2023-05-23T10:25:31;98016.50;;;24.53;43.86
53340;BME280;46212;50.258;19.062;2023-05-23T10:27:58;98012.72;;;24.58;43.21
53340;BME280;46212;50.258;19.062;2023-05-23T10:30:27;98013.44;;;24.74;44.52
53340;BME280;46212;50.258;19.062;2023-05-23T10:32:54;98004.03;;;24.87;45.60
53340;BME280;46212;50.258;19.062;2023-05-23T10:38:03;97997.41;;;24.99;40.38
53340;BME280;46212;50.258;19.062;2023-05-23T10:43:23;98001.16;;;25.17;42.93
53340;BME280;46212;50.258;19.062;2023-05-23T10:45:50;97992.59;;;25.32;41.51
53340;BME280;46212;50.258;19.062;2023-05-23T10:48:41;98006.31;;;25.51;42.12
53340;BME280;46212;50.258;19.062;2023-05-23T10:51:10;98000.78;;;25.60;38.31
53340;BME280;46212;50.258;19.062;2023-05-23T10:53:38;98001.69;;;25.70;40.31
53340;BME280;46212;50.258;19.062;2023-05-23T10:56:05;97989.72;;;25.87;43.41
53340;BME280;46212;50.258;19.062;2023-05-23T10:58:39;97993.00;;;26.01;45.52
53340;BME280;46212;50.258;19.062;2023-05-23T11:01:07;97986.69;;;26.17;43.48
53340;BME280;46212;50.258;19.062;2023-05-23T11:03:47;97993.16;;;26.35;43.24
53340;BME280;46212;50.258;19.062;2023-05-23T11:06:42;97994.13;;;26.30;38.47
53340;BME280;46212;50.258;19.062;2023-05-23T11:11:53;97986.00;;;26.51;38.80
53340;BME280;46212;50.258;19.062;2023-05-23T11:19:36;97971.34;;;27.04;43.28
53340;BME280;46212;50.258;19.062;2023-05-23T11:22:02;97975.66;;;27.05;43.62
53340;BME280;46212;50.258;19.062;2023-05-23T11:27:11;97969.78;;;27.11;37.65
53340;BME280;46212;50.258;19.062;2023-05-23T11:29:37;97975.16;;;27.33;42.07
53340;BME280;46212;50.258;19.062;2023-05-23T11:32:09;97957.78;;;27.47;37.34
53340;BME280;46212;50.258;19.062;2023-05-23T11:34:37;97961.13;;;27.79;37.34
53340;BME280;46212;50.258;19.062;2023-05-23T11:37:03;97959.41;;;27.93;39.20
53340;BME280;46212;50.258;19.062;2023-05-23T11:39:28;97963.47;;;28.00;36.08
53340;BME280;46212;50.258;19.062;2023-05-23T11:42:01;97946.66;;;28.12;34.34
53340;BME280;46212;50.258;19.062;2023-05-23T11:44:27;97950.91;;;28.39;37.48
53340;BME280;46212;50.258;19.062;2023-05-23T11:47:03;97944.59;;;28.77;37.74
53340;BME280;46212;50.258;19.062;2023-05-23T11:49:30;97939.97;;;28.82;33.94
53340;BME280;46212;50.258;19.062;2023-05-23T11:51:57;97945.66;;;29.11;35.03
53340;BME280;46212;50.258;19.062;2023-05-23T11:54:26;97954.63;;;29.17;36.60
53340;BME280;46212;50.258;19.062;2023-05-23T11:56:53;97943.09;;;29.34;31.85
53340;BME280;46212;50.258;19.062;2023-05-23T11:59:20;97949.06;;;29.19;33.91
53340;BME280;46212;50.258;19.062;2023-05-23T12:01:46;97943.56;;;28.82;32.04
53340;BME280;46212;50.258;19.062;2023-05-23T12:04:11;97959.03;;;28.62;32.84
53340;BME280;46212;50.258;19.062;2023-05-23T12:06:38;97956.91;;;28.43;32.63
53340;BME280;46212;50.258;19.062;2023-05-23T12:09:03;97955.28;;;28.40;33.09
53340;BME280;46212;50.258;19.062;2023-05-23T12:11:32;97951.16;;;28.15;32.98
53340;BME280;46212;50.258;19.062;2023-05-23T12:13:58;97945.44;;;28.05;36.54
53340;BME280;46212;50.258;19.062;2023-05-23T12:16:27;97947.97;;;27.74;35.69
53340;BME280;46212;50.258;19.062;2023-05-23T12:18:53;97942.88;;;27.46;37.42
53340;BME280;46212;50.258;19.062;2023-05-23T12:21:20;97933.91;;;27.23;39.17
53340;BME280;46212;50.258;19.062;2023-05-23T12:23:49;97944.59;;;26.98;39.55
53340;BME280;46212;50.258;19.062;2023-05-23T12:26:14;97948.16;;;26.64;38.02
53340;BME280;46212;50.258;19.062;2023-05-23T12:29:13;97959.13;;;26.18;37.86
53340;BME280;46212;50.258;19.062;2023-05-23T12:31:39;97971.28;;;25.38;39.33
53340;BME280;46212;50.258;19.062;2023-05-23T12:34:04;97992.94;;;24.89;41.41
53340;BME280;46212;50.258;19.062;2023-05-23T12:36:29;98001.94;;;24.04;43.99
53340;BME280;46212;50.258;19.062;2023-05-23T12:39:02;98010.06;;;23.41;46.98
53340;BME280;46212;50.258;19.062;2023-05-23T12:41:28;98015.66;;;22.98;50.08
53340;BME280;46212;50.258;19.062;2023-05-23T12:43:54;98009.31;;;22.48;56.67
53340;BME280;46212;50.258;19.062;2023-05-23T12:46:21;98021.41;;;21.47;61.16
53340;BME280;46212;50.258;19.062;2023-05-23T12:48:47;98024.72;;;20.99;64.87
53340;BME280;46212;50.258;19.062;2023-05-23T12:51:13;98023.19;;;20.72;66.57
53340;BME280;46212;50.258;19.062;2023-05-23T12:53:39;98026.84;;;20.53;68.75
53340;BME280;46212;50.258;19.062;2023-05-23T12:56:05;98035.34;;;20.35;70.56
53340;BME280;46212;50.258;19.062;2023-05-23T12:58:30;98032.06;;;19.99;71.43
53340;BME280;46212;50.258;19.062;2023-05-23T13:00:57;98035.56;;;19.86;72.89
53340;BME280;46212;50.258;19.062;2023-05-23T13:03:22;98019.75;;;19.89;73.27
53340;BME280;46212;50.258;19.062;2023-05-23T13:05:48;98018.19;;;19.75;71.67
53340;BME280;46212;50.258;19.062;2023-05-23T13:08:14;98014.31;;;19.78;72.79
53340;BME280;46212;50.258;19.062;2023-05-23T13:10:39;98015.13;;;19.73;71.85
53340;BME280;46212;50.258;19.062;2023-05-23T13:13:04;98016.66;;;19.74;71.97
53340;BME280;46212;50.258;19.062;2023-05-23T13:15:30;98016.50;;;19.85;72.46